sensor_id;sensor_type;location;lat;lon;timestamp;P1;durP1;ratioP1;P2;durP2;ratioP2
32427;SDS011;18882;50.952;4.366;2024-03-02T09:19:30;5.00;;;0.70;;
32427;SDS011;18882;50.952;4.366;2024-03-02T09:22:26;5.20;;;0.52;;
32427;SDS011;18882;50.952;4.366;2024-03-02T09:28:58;5.07;;;0.80;;
32427;SDS011;18882;50.952;4.366;2024-03-02T09:39:08;5.10;;;0.65;;
32427;SDS011;18882;50.952;4.366;2024-03-02T09:42:23;3.05;;;0.40;;
32427;SDS011;18882;50.952;4.366;2024-03-02T09:46:02;4.88;;;0.50;;
32427;SDS011;18882;50.952;4.366;2024-03-02T09:49:20;6.03;;;1.95;;
32427;SDS011;18882;50.952;4.366;2024-03-02T09:52:25;3.88;;;0.77;;
32427;SDS011;18882;50.952;4.366;2024-03-02T09:55:29;3.38;;;0.60;;
32427;SDS011;18882;50.952;4.366;2024-03-02T16:34:53;7.65;;;0.60;;
32427;SDS011;18882;50.952;4.366;2024-03-02T16:41:17;1.17;;;0.57;;
32427;SDS011;18882;50.952;4.366;2024-03-02T16:44:39;0.80;;;0.40;;
32427;SDS011;18882;50.952;4.366;2024-03-02T16:47:39;2.85;;;0.68;;
32427;SDS011;18882;50.952;4.366;2024-03-02T16:50:59;1.73;;;0.65;;
32427;SDS011;18882;50.952;4.366;2024-03-02T16:54:25;1.83;;;0.80;;
32427;SDS011;18882;50.952;4.366;2024-03-02T16:57:35;2.80;;;0.77;;
32427;SDS011;18882;50.952;4.366;2024-03-02T17:00:42;1.35;;;0.60;;
32427;SDS011;18882;50.952;4.366;2024-03-02T17:03:38;3.50;;;0.93;;
32427;SDS011;18882;50.952;4.366;2024-03-02T17:06:53;2.80;;;0.80;;
32427;SDS011;18882;50.952;4.366;2024-03-02T17:09:48;1.80;;;1.47;;
32427;SDS011;18882;50.952;4.366;2024-03-02T17:16:36;2.25;;;1.00;;
32427;SDS011;18882;50.952;4.366;2024-03-02T17:19:50;0.90;;;0.77;;
32427;SDS011;18882;50.952;4.366;2024-03-02T17:22:38;3.75;;;0.98;;
32427;SDS011;18882;50.952;4.366;2024-03-02T17:26:13;2.47;;;0.77;;
32427;SDS011;18882;50.952;4.366;2024-03-02T17:29:32;7.78;;;2.83;;
32427;SDS011;18882;50.952;4.366;2024-03-02T17:32:19;1.50;;;1.10;;
32427;SDS011;18882;50.952;4.366;2024-03-02T17:35:44;2.03;;;1.00;;
32427;SDS011;18882;50.952;4.366;2024-03-02T17:38:34;1.00;;;0.77;;
32427;SDS011;18882;50.952;4.366;2024-03-02T17:41:16;1.70;;;1.08;;
32427;SDS011;18882;50.952;4.366;2024-03-02T17:44:14;4.57;;;1.48;;
32427;SDS011;18882;50.952;4.366;2024-03-02T17:46:58;3.67;;;1.42;;
32427;SDS011;18882;50.952;4.366;2024-03-02T17:50:15;1.45;;;1.10;;
32427;SDS011;18882;50.952;4.366;2024-03-02T17:52:47;1.92;;;0.80;;
32427;SDS011;18882;50.952;4.366;2024-03-02T17:56:05;2.13;;;1.10;;
32427;SDS011;18882;50.952;4.366;2024-03-02T17:58:43;1.55;;;1.10;;
32427;SDS011;18882;50.952;4.366;2024-03-02T18:01:22;1.10;;;1.00;;
32427;SDS011;18882;50.952;4.366;2024-03-02T18:04:23;2.05;;;1.17;;
32427;SDS011;18882;50.952;4.366;2024-03-02T18:07:07;2.13;;;1.23;;
32427;SDS011;18882;50.952;4.366;2024-03-02T18:10:42;3.13;;;1.35;;
32427;SDS011;18882;50.952;4.366;2024-03-02T18:13:09;6.22;;;1.88;;
32427;SDS011;18882;50.952;4.366;2024-03-02T18:15:46;6.68;;;3.08;;
32427;SDS011;18882;50.952;4.366;2024-03-02T18:18:24;2.63;;;1.75;;
32427;SDS011;18882;50.952;4.366;2024-03-02T18:21:00;3.75;;;1.65;;
32427;SDS011;18882;50.952;4.366;2024-03-02T18:24:05;2.38;;;1.27;;
32427;SDS011;18882;50.952;4.366;2024-03-02T18:26:49;1.75;;;0.95;;
32427;SDS011;18882;50.952;4.366;2024-03-02T18:30:05;2.47;;;1.60;;
32427;SDS011;18882;50.952;4.366;2024-03-02T18:32:38;2.92;;;1.85;;
32427;SDS011;18882;50.952;4.366;2024-03-02T18:35:26;2.53;;;1.90;;
32427;SDS011;18882;50.952;4.366;2024-03-02T18:37:53;1.80;;;1.33;;
32427;SDS011;18882;50.952;4.366;2024-03-02T18:40:26;1.60;;;1.00;;
32427;SDS011;18882;50.952;4.366;2024-03-02T18:42:53;1.40;;;1.30;;
32427;SDS011;18882;50.952;4.366;2024-03-02T18:45:19;3.05;;;1.83;;
32427;SDS011;18882;50.952;4.366;2024-03-02T18:47:48;3.70;;;2.28;;
32427;SDS011;18882;50.952;4.366;2024-03-02T18:50:22;4.82;;;2.53;;
32427;SDS011;18882;50.952;4.366;2024-03-02T18:52:50;2.97;;;1.88;;
32427;SDS011;18882;50.952;4.366;2024-03-02T18:55:29;5.10;;;2.20;;
32427;SDS011;18882;50.952;4.366;2024-03-02T18:58:06;3.05;;;2.08;;
32427;SDS011;18882;50.952;4.366;2024-03-02T19:00:34;2.58;;;1.65;;
32427;SDS011;18882;50.952;4.366;2024-03-02T19:03:04;3.03;;;1.80;;
32427;SDS011;18882;50.952;4.366;2024-03-02T19:05:33;2.40;;;2.17;;
32427;SDS011;18882;50.952;4.366;2024-03-02T19:08:04;2.35;;;1.40;;
32427;SDS011;18882;50.952;4.366;2024-03-02T19:10:36;4.70;;;2.60;;
32427;SDS011;18882;50.952;4.366;2024-03-02T19:13:07;3.45;;;2.28;;
32427;SDS011;18882;50.952;4.366;2024-03-02T19:15:35;6.07;;;3.10;;
32427;SDS011;18882;50.952;4.366;2024-03-02T19:18:04;2.10;;;1.63;;
32427;SDS011;18882;50.952;4.366;2024-03-02T19:20:30;4.13;;;2.60;;
32427;SDS011;18882;50.952;4.366;2024-03-02T19:22:58;4.43;;;2.53;;
32427;SDS011;18882;50.952;4.366;2024-03-02T19:25:27;3.42;;;2.30;;
32427;SDS011;18882;50.952;4.366;2024-03-02T19:27:59;3.42;;;2.30;;
32427;SDS011;18882;50.952;4.366;2024-03-02T19:30:30;2.33;;;1.55;;
32427;SDS011;18882;50.952;4.366;2024-03-02T19:33:00;4.20;;;2.20;;
32427;SDS011;18882;50.952;4.366;2024-03-02T19:35:26;3.20;;;2.05;;
32427;SDS011;18882;50.952;4.366;2024-03-02T19:37:54;5.82;;;2.65;;
32427;SDS011;18882;50.952;4.366;2024-03-02T19:40:21;2.88;;;1.95;;
32427;SDS011;18882;50.952;4.366;2024-03-02T19:43:05;7.35;;;2.47;;
32427;SDS011;18882;50.952;4.366;2024-03-02T19:48:07;3.75;;;2.50;;
32427;SDS011;18882;50.952;4.366;2024-03-02T19:50:38;3.47;;;2.08;;
32427;SDS011;18882;50.952;4.366;2024-03-02T19:53:08;2.20;;;2.00;;
32427;SDS011;18882;50.952;4.366;2024-03-02T19:55:38;4.80;;;2.38;;
32427;SDS011;18882;50.952;4.366;2024-03-02T19:58:05;4.20;;;2.03;;
32427;SDS011;18882;50.952;4.366;2024-03-02T20:00:34;4.93;;;2.35;;
32427;SDS011;18882;50.952;4.366;2024-03-02T20:03:12;4.50;;;2.20;;
32427;SDS011;18882;50.952;4.366;2024-03-02T20:05:39;1.85;;;1.67;;
32427;SDS011;18882;50.952;4.366;2024-03-02T20:08:06;3.15;;;2.00;;
32427;SDS011;18882;50.952;4.366;2024-03-02T20:10:35;3.60;;;1.95;;
32427;SDS011;18882;50.952;4.366;2024-03-02T20:13:52;3.72;;;1.55;;
32427;SDS011;18882;50.952;4.366;2024-03-02T20:16:30;2.28;;;1.45;;
32427;SDS011;18882;50.952;4.366;2024-03-02T20:19:41;4.07;;;2.03;;
32427;SDS011;18882;50.952;4.366;2024-03-02T20:22:16;2.53;;;1.85;;
32427;SDS011;18882;50.952;4.366;2024-03-02T20:25:11;2.83;;;1.65;;
32427;SDS011;18882;50.952;4.366;2024-03-02T20:27:40;4.15;;;1.95;;
32427;SDS011;18882;50.952;4.366;2024-03-02T20:30:09;2.15;;;1.80;;
32427;SDS011;18882;50.952;4.366;2024-03-02T20:32:38;4.18;;;2.33;;
32427;SDS011;18882;50.952;4.366;2024-03-02T20:35:09;1.55;;;1.15;;
32427;SDS011;18882;50.952;4.366;2024-03-02T20:38:01;3.90;;;1.58;;
32427;SDS011;18882;50.952;4.366;2024-03-02T20:40:46;2.17;;;1.15;;
32427;SDS011;18882;50.952;4.366;2024-03-02T20:43:18;2.45;;;1.48;;
32427;SDS011;18882;50.952;4.366;2024-03-02T20:45:49;3.35;;;1.63;;
32427;SDS011;18882;50.952;4.366;2024-03-02T20:48:15;2.38;;;1.48;;
32427;SDS011;18882;50.952;4.366;2024-03-02T20:50:42;1.50;;;1.08;;
32427;SDS011;18882;50.952;4.366;2024-03-02T20:53:14;3.45;;;1.25;;
32427;SDS011;18882;50.952;4.366;2024-03-02T20:55:42;2.47;;;1.48;;
32427;SDS011;18882;50.952;4.366;2024-03-02T20:58:09;2.22;;;1.42;;
32427;SDS011;18882;50.952;4.366;2024-03-02T21:00:44;3.58;;;1.77;;
32427;SDS011;18882;50.952;4.366;2024-03-02T21:03:13;3.08;;;1.30;;
32427;SDS011;18882;50.952;4.366;2024-03-02T21:05:43;1.45;;;1.05;;
32427;SDS011;18882;50.952;4.366;2024-03-02T21:08:13;3.45;;;1.13;;
32427;SDS011;18882;50.952;4.366;2024-03-02T21:10:40;3.08;;;0.88;;
32427;SDS011;18882;50.952;4.366;2024-03-02T21:13:08;1.40;;;0.77;;
32427;SDS011;18882;50.952;4.366;2024-03-02T21:15:36;3.42;;;1.13;;
32427;SDS011;18882;50.952;4.366;2024-03-02T21:18:05;1.67;;;0.80;;
32427;SDS011;18882;50.952;4.366;2024-03-02T21:20:31;1.52;;;0.60;;
32427;SDS011;18882;50.952;4.366;2024-03-02T21:23:00;2.53;;;0.77;;
32427;SDS011;18882;50.952;4.366;2024-03-02T21:31:29;1.60;;;0.80;;
32427;SDS011;18882;50.952;4.366;2024-03-02T21:34:46;1.17;;;0.70;;
32427;SDS011;18882;50.952;4.366;2024-03-02T21:38:00;0.70;;;0.70;;
32427;SDS011;18882;50.952;4.366;2024-03-02T21:40:54;3.60;;;0.57;;
32427;SDS011;18882;50.952;4.366;2024-03-02T21:43:50;3.30;;;1.00;;
32427;SDS011;18882;50.952;4.366;2024-03-02T21:47:02;0.88;;;0.82;;
32427;SDS011;18882;50.952;4.366;2024-03-02T21:49:38;2.03;;;1.00;;
32427;SDS011;18882;50.952;4.366;2024-03-02T21:52:43;2.47;;;0.98;;
32427;SDS011;18882;50.952;4.366;2024-03-02T21:55:39;1.55;;;0.80;;
32427;SDS011;18882;50.952;4.366;2024-03-02T21:58:20;1.70;;;0.98;;
32427;SDS011;18882;50.952;4.366;2024-03-02T22:01:14;1.75;;;0.80;;
32427;SDS011;18882;50.952;4.366;2024-03-02T22:04:04;2.05;;;0.80;;
32427;SDS011;18882;50.952;4.366;2024-03-02T22:06:31;3.88;;;1.10;;
32427;SDS011;18882;50.952;4.366;2024-03-02T22:29:05;1.65;;;1.20;;
32427;SDS011;18882;50.952;4.366;2024-03-02T22:32:02;2.40;;;1.05;;
32427;SDS011;18882;50.952;4.366;2024-03-02T22:34:47;1.40;;;1.17;;
32427;SDS011;18882;50.952;4.366;2024-03-02T22:37:14;4.60;;;0.90;;
32427;SDS011;18882;50.952;4.366;2024-03-02T22:39:43;1.10;;;0.80;;
32427;SDS011;18882;50.952;4.366;2024-03-02T22:42:09;3.22;;;0.88;;
32427;SDS011;18882;50.952;4.366;2024-03-02T22:44:38;2.78;;;1.00;;
32427;SDS011;18882;50.952;4.366;2024-03-02T22:47:10;0.90;;;0.60;;
32427;SDS011;18882;50.952;4.366;2024-03-02T22:49:46;1.05;;;0.90;;
32427;SDS011;18882;50.952;4.366;2024-03-02T22:52:13;1.83;;;0.90;;
32427;SDS011;18882;50.952;4.366;2024-03-02T22:54:40;1.75;;;0.95;;
32427;SDS011;18882;50.952;4.366;2024-03-02T22:57:06;3.08;;;1.23;;
32427;SDS011;18882;50.952;4.366;2024-03-02T22:59:41;1.80;;;1.27;;
32427;SDS011;18882;50.952;4.366;2024-03-02T23:02:16;2.17;;;1.08;;
32427;SDS011;18882;50.952;4.366;2024-03-02T23:08:24;2.30;;;0.90;;
32427;SDS011;18882;50.952;4.366;2024-03-02T23:10:55;2.92;;;1.00;;
32427;SDS011;18882;50.952;4.366;2024-03-02T23:13:23;4.57;;;1.40;;
32427;SDS011;18882;50.952;4.366;2024-03-02T23:19:12;2.78;;;1.27;;
32427;SDS011;18882;50.952;4.366;2024-03-02T23:22:29;2.20;;;1.15;;
32427;SDS011;18882;50.952;4.366;2024-03-02T23:25:45;2.00;;;1.13;;
32427;SDS011;18882;50.952;4.366;2024-03-02T23:28:33;1.77;;;0.70;;
32427;SDS011;18882;50.952;4.366;2024-03-02T23:31:17;3.15;;;0.73;;
32427;SDS011;18882;50.952;4.366;2024-03-02T23:34:20;1.27;;;0.80;;
32427;SDS011;18882;50.952;4.366;2024-03-02T23:37:34;1.17;;;0.77;;
32427;SDS011;18882;50.952;4.366;2024-03-02T23:40:24;2.20;;;0.90;;
32427;SDS011;18882;50.952;4.366;2024-03-02T23:43:39;3.45;;;0.80;;
32427;SDS011;18882;50.952;4.366;2024-03-02T23:47:01;2.17;;;1.55;;
32427;SDS011;18882;50.952;4.366;2024-03-02T23:50:14;1.55;;;1.00;;
32427;SDS011;18882;50.952;4.366;2024-03-02T23:53:18;1.95;;;0.85;;
32427;SDS011;18882;50.952;4.366;2024-03-02T23:59:41;2.72;;;1.15;;
